North Fork, Idaho
Current Conditions -  °F | °C
As of 6:55 PM on Wednesday 22 Oct 2014 (Local Time) from KLLJ Reporting Station
Scattered Clouds Scattered Clouds  
Wind Chill: 10°   Ceiling: Unl
Heat Index: 10°   Visibility: 10mi
Dew Point: -1°   Wind: 9mph
Humidity: 48%   Direction: 170°S
Pressure: 30.07"   Gusts: NA
Location:  45.41°N, 114°W
Report Text: KLLJ 230055Z AUTO 17008KT 10SM FEW065 SCT080 10/M01 A3007 RMK AO2 SLP176 T01001006
Loading
Personal Weather Stations






























Interactive Weather Map
Tropical Storm Tracking
New forecast layout! Learn more

10-Day Weather Forecast

Advertisements
Track Severe Weather on mobile